Paw Paw, Kentucky
Current Conditions -  °F | °C
As of 1:35 PM on Saturday 25 Oct 2014 (Local Time) from KPBX Reporting Station
Overcast Overcast  
Wind Chill: 61°   Ceiling: 5000
Heat Index: 61°   Visibility: 10mi
Dew Point: 48°   Wind: 3mph
Humidity: 62%   Direction: 200°SSW
Pressure: 30.03"   Gusts: NA
Location:  37.4798°N, 82.1599°W
Report Text: KPBX 251735Z AUTO 20003KT 10SM OVC050 16/09 A3003 RMK AO2 T01620089
Loading
Personal Weather Stations






























Interactive Weather Map
Tropical Storm Tracking
New forecast layout! Learn more

10-Day Weather Forecast

Advertisements
Track Severe Weather on mobile